createdAt,value
2023-01-07T00:03:41.726Z,5.60
2023-01-07T00:08:48.138Z,5.40
2023-01-07T00:13:52.585Z,7.10
2023-01-07T00:18:57.804Z,5.43
2023-01-07T00:24:04.320Z,5.30
2023-01-07T00:29:08.820Z,4.87
2023-01-07T00:34:12.411Z,5.97
2023-01-07T00:39:19.235Z,6.30
2023-01-07T00:44:22.673Z,5.00
2023-01-07T00:49:26.094Z,6.43
2023-01-07T00:54:31.200Z,5.60
2023-01-07T00:59:34.661Z,6.33
2023-01-07T01:04:38.166Z,4.53
2023-01-07T01:09:43.020Z,4.93
2023-01-07T01:14:46.574Z,5.37
2023-01-07T01:19:50.070Z,5.87
2023-01-07T01:24:55.238Z,5.63
2023-01-07T01:29:58.675Z,6.10
2023-01-07T01:35:02.098Z,5.10
2023-01-07T01:40:08.490Z,5.37
2023-01-07T01:45:13.890Z,5.10
2023-01-07T01:50:23.096Z,6.67
2023-01-07T01:55:33.449Z,5.47
2023-01-07T02:00:37.520Z,6.73
2023-01-07T02:05:43.220Z,6.30
2023-01-07T02:10:48.399Z,5.33
2023-01-07T02:15:58.669Z,6.03
2023-01-07T02:21:12.804Z,5.23
2023-01-07T02:26:48.633Z,4.57
2023-01-07T02:32:08.712Z,4.07
2023-01-07T02:37:17.228Z,4.87
2023-01-07T02:42:27.000Z,4.17
2023-01-07T02:47:37.866Z,4.40
2023-01-07T02:52:41.355Z,5.57
2023-01-07T02:58:17.521Z,5.30
2023-01-07T03:03:37.064Z,5.23
2023-01-07T03:08:54.785Z,4.53
2023-01-07T03:14:05.774Z,5.00
2023-01-07T03:19:14.215Z,4.97
2023-01-07T03:24:18.507Z,5.97
2023-01-07T03:29:23.564Z,5.50
2023-01-07T03:34:30.185Z,4.97
2023-01-07T03:39:35.967Z,4.57
2023-01-07T03:44:39.493Z,4.87
2023-01-07T03:49:44.308Z,6.17
2023-01-07T03:54:47.761Z,4.20
2023-01-07T03:59:51.148Z,5.50
2023-01-07T04:04:55.947Z,5.40
2023-01-07T04:09:59.300Z,5.13
2023-01-07T04:15:02.819Z,5.37
2023-01-07T04:20:08.925Z,3.80
2023-01-07T04:25:12.327Z,4.67
2023-01-07T04:30:15.800Z,4.80
2023-01-07T04:35:20.683Z,5.47
2023-01-07T04:40:24.113Z,7.93
2023-01-07T04:45:27.567Z,5.23
2023-01-07T04:50:32.420Z,4.63
2023-01-07T04:55:35.871Z,5.17
2023-01-07T05:00:39.314Z,4.20
2023-01-07T05:05:44.173Z,5.47
2023-01-07T05:10:49.928Z,4.20
2023-01-07T05:15:53.536Z,4.47
2023-01-07T05:20:58.384Z,4.23
2023-01-07T05:26:01.806Z,4.47
2023-01-07T05:31:05.415Z,4.70
2023-01-07T05:36:11.016Z,3.93
2023-01-07T05:41:14.453Z,6.77
2023-01-07T05:46:17.944Z,4.90
2023-01-07T05:51:22.847Z,4.30
2023-01-07T05:56:26.308Z,4.30
2023-01-07T06:01:29.784Z,5.47
2023-01-07T06:06:34.773Z,5.23
2023-01-07T06:11:38.206Z,4.77
2023-01-07T06:16:41.839Z,6.87
2023-01-07T06:21:46.748Z,5.10
2023-01-07T06:26:50.186Z,5.50
2023-01-07T06:31:53.643Z,4.87
2023-01-07T06:36:58.796Z,4.57
2023-01-07T06:42:02.251Z,4.67
2023-01-07T06:47:05.776Z,5.53
2023-01-07T06:52:10.656Z,5.00
2023-01-07T06:57:14.490Z,4.30
2023-01-07T07:02:20.834Z,4.87
2023-01-07T07:07:25.875Z,5.17
2023-01-07T07:12:29.387Z,4.47
2023-01-07T07:17:32.848Z,4.57
2023-01-07T07:28:02.696Z,6.17
2023-01-07T07:33:06.364Z,5.47
2023-01-07T07:38:11.223Z,4.13
2023-01-07T07:43:15.059Z,4.57
2023-01-07T07:48:18.555Z,8.73
2023-01-07T07:53:23.735Z,5.17
2023-01-07T07:58:27.227Z,5.23
2023-01-07T08:03:30.785Z,6.27
2023-01-07T08:08:35.719Z,5.10
2023-01-07T08:13:39.192Z,5.20
2023-01-07T08:18:42.847Z,6.47
2023-01-07T08:23:50.888Z,5.13
2023-01-07T08:28:54.424Z,4.33
2023-01-07T08:33:57.924Z,5.20
2023-01-07T08:39:02.861Z,5.23
2023-01-07T08:44:06.722Z,4.77
2023-01-07T08:49:11.364Z,6.30
2023-01-07T08:54:16.581Z,6.17
2023-01-07T08:59:20.052Z,5.50
2023-01-07T09:04:23.556Z,5.87
2023-01-07T09:09:30.446Z,5.50
2023-01-07T09:14:34.492Z,7.43
2023-01-07T09:19:38.062Z,5.30
2023-01-07T09:24:42.954Z,5.67
2023-01-07T09:29:46.437Z,7.13
2023-01-07T09:34:50.042Z,7.07
2023-01-07T09:39:55.069Z,7.33
2023-01-07T09:45:10.496Z,6.53
2023-01-07T09:50:25.033Z,7.73
2023-01-07T09:55:34.108Z,6.43
2023-01-07T10:00:38.738Z,5.70
2023-01-07T10:05:50.512Z,5.77
2023-01-07T10:11:02.387Z,4.53
2023-01-07T10:16:11.712Z,6.67
2023-01-07T10:21:22.629Z,4.00
2023-01-07T10:26:36.333Z,4.80
2023-01-07T10:31:40.791Z,4.53
2023-01-07T10:36:56.343Z,3.73
2023-01-07T10:42:11.466Z,4.33
2023-01-07T10:47:26.628Z,3.47
2023-01-07T10:52:40.288Z,3.33
2023-01-07T10:57:45.994Z,4.03
2023-01-07T11:02:53.965Z,3.73
2023-01-07T11:08:00.757Z,2.60
2023-01-07T11:13:14.002Z,2.67
2023-01-07T11:18:22.764Z,2.80
2023-01-07T11:23:35.601Z,1.87
2023-01-07T11:28:45.270Z,5.20
2023-01-07T11:34:03.875Z,2.13
2023-01-07T11:39:11.928Z,2.53
2023-01-07T11:44:18.430Z,1.63
2023-01-07T11:49:26.349Z,1.53
2023-01-07T11:54:31.957Z,1.20
2023-01-07T11:59:36.887Z,1.77
2023-01-07T12:04:40.501Z,2.10
2023-01-07T12:09:46.979Z,1.30
2023-01-07T12:14:51.969Z,0.67
2023-01-07T12:20:07.543Z,1.00
2023-01-07T12:25:38.320Z,2.67
2023-01-07T12:31:07.289Z,1.37
2023-01-07T12:36:16.920Z,2.40
2023-01-07T12:41:23.702Z,1.90
2023-01-07T12:46:33.099Z,2.20
2023-01-07T12:51:44.767Z,1.83
2023-01-07T12:56:52.858Z,1.90
2023-01-07T13:02:08.047Z,1.80
2023-01-07T13:07:17.621Z,2.43
2023-01-07T13:12:46.294Z,1.70
2023-01-07T13:17:54.849Z,1.27
2023-01-07T13:22:59.082Z,1.83
2023-01-07T13:28:22.889Z,2.80
2023-01-07T13:33:33.716Z,1.73
2023-01-07T13:39:00.539Z,1.90
2023-01-07T13:44:23.772Z,1.57
2023-01-07T13:49:30.107Z,1.43
2023-01-07T13:54:59.493Z,1.80
2023-01-07T14:00:05.025Z,1.50
2023-01-07T14:05:25.621Z,1.70
2023-01-07T14:10:31.784Z,1.37
2023-01-07T14:16:06.493Z,2.00
2023-01-07T14:21:22.431Z,1.30
2023-01-07T14:26:34.592Z,3.07
2023-01-07T14:31:38.637Z,1.50
2023-01-07T14:37:15.106Z,1.83
2023-01-07T14:42:40.447Z,1.30
2023-01-07T14:47:55.933Z,1.83
2023-01-07T14:53:35.275Z,1.33
2023-01-07T14:59:03.710Z,1.67
2023-01-07T15:04:52.583Z,1.00
2023-01-07T15:10:17.357Z,0.97
2023-01-07T15:15:43.797Z,1.40
2023-01-07T15:21:07.979Z,1.60
2023-01-07T15:26:18.983Z,1.40
2023-01-07T15:31:30.104Z,1.30
2023-01-07T15:36:34.021Z,1.20
2023-01-07T15:41:41.173Z,1.30
2023-01-07T15:46:44.782Z,2.20
2023-01-07T15:51:50.242Z,1.63
2023-01-07T15:56:58.353Z,1.00
2023-01-07T16:02:07.467Z,2.03
2023-01-07T16:07:22.882Z,2.00
2023-01-07T16:12:34.389Z,1.70
2023-01-07T16:17:37.829Z,1.57
2023-01-07T16:22:43.520Z,1.20
2023-01-07T16:27:48.913Z,1.33
2023-01-07T16:32:54.823Z,2.20
2023-01-07T16:37:58.465Z,1.17
2023-01-07T16:43:03.685Z,2.60
2023-01-07T16:48:21.625Z,2.87
2023-01-07T16:53:31.281Z,2.87
2023-01-07T16:58:44.670Z,3.37
2023-01-07T17:03:53.019Z,2.90
2023-01-07T17:08:57.628Z,4.30
2023-01-07T17:14:03.021Z,3.30
2023-01-07T17:19:26.645Z,2.90
2023-01-07T17:24:50.838Z,2.60
2023-01-07T17:29:56.102Z,3.40
2023-01-07T17:35:05.607Z,3.83
2023-01-07T17:40:10.198Z,3.50
2023-01-07T17:45:20.750Z,3.60
2023-01-07T17:50:24.419Z,4.10
2023-01-07T17:55:30.232Z,4.00
2023-01-07T18:00:36.854Z,3.90
2023-01-07T18:05:41.513Z,7.77
2023-01-07T18:11:03.510Z,3.73
2023-01-07T18:16:12.243Z,3.10
2023-01-07T18:21:15.770Z,3.50
2023-01-07T18:26:21.323Z,5.97
2023-01-07T18:31:28.155Z,7.93
2023-01-07T18:36:32.342Z,8.73
2023-01-07T18:41:36.087Z,8.07
2023-01-07T18:46:40.956Z,9.93
2023-01-07T18:51:46.531Z,6.77
2023-01-07T18:56:49.983Z,8.40
2023-01-07T19:01:58.234Z,4.17
2023-01-07T19:07:03.576Z,3.90
2023-01-07T19:12:08.196Z,5.13
2023-01-07T19:17:13.098Z,5.70
2023-01-07T19:22:17.062Z,6.53
2023-01-07T19:27:20.942Z,6.40
2023-01-07T19:32:25.826Z,5.87
2023-01-07T19:37:29.526Z,4.43
2023-01-07T19:42:33.512Z,5.47
2023-01-07T19:47:39.517Z,3.70
2023-01-07T19:52:43.093Z,6.13
2023-01-07T19:57:46.554Z,4.83
2023-01-07T20:02:51.592Z,3.40
2023-01-07T20:07:55.088Z,4.00
2023-01-07T20:12:58.659Z,5.47
2023-01-07T20:18:04.069Z,7.30
2023-01-07T20:23:07.556Z,8.17
2023-01-07T20:28:11.024Z,6.43
2023-01-07T20:33:16.118Z,10.43
2023-01-07T20:38:19.562Z,9.40
2023-01-07T20:43:25.845Z,3.90
2023-01-07T20:48:30.873Z,4.00
2023-01-07T20:53:34.909Z,3.87
2023-01-07T20:58:39.490Z,3.20
2023-01-07T21:03:48.624Z,4.73
2023-01-07T21:08:52.650Z,7.07
2023-01-07T21:13:56.652Z,8.57
2023-01-07T21:19:01.748Z,9.10
2023-01-07T21:24:05.476Z,7.57
2023-01-07T21:29:09.798Z,7.73
2023-01-07T21:34:16.607Z,8.80
2023-01-07T21:39:20.426Z,8.47
2023-01-07T21:44:23.891Z,6.50
2023-01-07T21:49:29.154Z,6.53
2023-01-07T21:54:34.949Z,5.97
2023-01-07T21:59:38.495Z,5.80
2023-01-07T22:04:43.396Z,7.90
2023-01-07T22:09:47.417Z,7.43
2023-01-07T22:14:51.064Z,5.33
2023-01-07T22:19:55.947Z,5.73
2023-01-07T22:24:59.352Z,5.43
2023-01-07T22:30:02.862Z,5.30
2023-01-07T22:35:08.392Z,6.20
2023-01-07T22:40:12.829Z,5.83
2023-01-07T22:45:19.020Z,5.07
2023-01-07T22:50:24.053Z,5.73
2023-01-07T22:55:27.604Z,4.80
2023-01-07T23:00:41.030Z,6.40
2023-01-07T23:05:45.901Z,8.07
2023-01-07T23:10:49.654Z,9.40
2023-01-07T23:15:53.156Z,7.27
2023-01-07T23:20:58.457Z,6.90
2023-01-07T23:26:01.899Z,4.80
2023-01-07T23:31:16.740Z,4.97
2023-01-07T23:36:21.649Z,6.37
2023-01-07T23:41:25.391Z,5.77
2023-01-07T23:46:28.921Z,7.47
2023-01-07T23:51:33.837Z,5.07
2023-01-07T23:56:37.512Z,6.63
